createdAt,value
2017-05-21T00:00:40.667Z,4.97
2017-05-21T00:03:08.349Z,5.53
2017-05-21T00:05:36.734Z,5.52
2017-05-21T00:08:05.394Z,5.25
2017-05-21T00:10:33.009Z,5.98
2017-05-21T00:13:01.496Z,5.77
2017-05-21T00:15:29.973Z,5.63
2017-05-21T00:17:57.693Z,6.40
2017-05-21T00:20:25.396Z,6.43
2017-05-21T00:22:53.503Z,5.28
2017-05-21T00:25:21.366Z,6.10
2017-05-21T00:27:49.084Z,6.83
2017-05-21T00:30:17.609Z,5.73
2017-05-21T00:32:46.153Z,6.23
2017-05-21T00:35:14.591Z,5.72
2017-05-21T00:37:42.531Z,6.98
2017-05-21T00:40:10.323Z,6.22
2017-05-21T00:42:38.820Z,6.08
2017-05-21T00:45:07.233Z,7.10
2017-05-21T00:47:34.861Z,5.75
2017-05-21T00:50:03.239Z,6.45
2017-05-21T00:52:31.874Z,6.65
2017-05-21T00:54:59.909Z,7.23
2017-05-21T00:57:27.618Z,7.07
2017-05-21T00:59:55.458Z,6.65
2017-05-21T01:02:24.011Z,7.00
2017-05-21T01:04:51.716Z,7.13
2017-05-21T01:07:20.241Z,6.78
2017-05-21T01:09:48.849Z,6.90
2017-05-21T01:12:16.540Z,7.45
2017-05-21T01:14:45.078Z,9.77
2017-05-21T01:17:13.830Z,8.42
2017-05-21T01:19:41.577Z,8.08
2017-05-21T01:22:09.497Z,7.95
2017-05-21T01:24:37.194Z,8.65
2017-05-21T01:27:05.026Z,8.08
2017-05-21T01:29:32.730Z,9.57
2017-05-21T01:32:01.184Z,7.52
2017-05-21T01:34:29.124Z,8.65
2017-05-21T01:36:57.628Z,8.70
2017-05-21T01:39:26.249Z,9.48
2017-05-21T01:41:54.860Z,7.77
2017-05-21T01:44:23.230Z,9.08
2017-05-21T01:46:51.083Z,8.60
2017-05-21T01:49:18.584Z,9.63
2017-05-21T01:51:46.208Z,8.57
2017-05-21T01:54:13.703Z,9.05
2017-05-21T01:56:41.239Z,8.18
2017-05-21T01:59:09.545Z,9.60
2017-05-21T02:01:37.064Z,9.25
2017-05-21T02:04:05.402Z,8.38
2017-05-21T02:06:33.688Z,9.55
2017-05-21T02:09:01.211Z,9.10
2017-05-21T02:11:28.707Z,9.25
2017-05-21T02:13:56.218Z,10.72
2017-05-21T02:16:24.507Z,11.17
2017-05-21T02:18:52.793Z,10.37
2017-05-21T02:21:21.143Z,9.53
2017-05-21T02:23:48.699Z,9.92
2017-05-21T02:26:16.253Z,10.40
2017-05-21T02:28:44.579Z,10.62
2017-05-21T02:31:12.085Z,11.13
2017-05-21T02:33:39.688Z,10.12
2017-05-21T02:36:08.003Z,10.17
2017-05-21T02:38:36.319Z,11.18
2017-05-21T02:41:04.605Z,10.38
2017-05-21T02:43:32.375Z,9.93
2017-05-21T02:46:00.731Z,9.40
2017-05-21T02:48:28.992Z,9.58
2017-05-21T02:50:57.255Z,10.55
2017-05-21T02:53:24.808Z,9.98
2017-05-21T02:55:52.343Z,9.40
2017-05-21T02:58:19.875Z,11.07
2017-05-21T03:00:47.407Z,9.27
2017-05-21T03:03:15.728Z,10.87
2017-05-21T03:05:43.290Z,10.68
2017-05-21T03:08:11.124Z,11.43
2017-05-21T03:10:39.428Z,11.08
2017-05-21T03:13:06.963Z,11.78
2017-05-21T03:15:34.691Z,10.80
2017-05-21T03:18:02.608Z,10.43
2017-05-21T03:20:30.153Z,11.67
2017-05-21T03:22:58.023Z,10.93
2017-05-21T03:25:25.577Z,10.75
2017-05-21T03:27:53.091Z,12.95
2017-05-21T03:30:20.906Z,11.58
2017-05-21T03:32:48.643Z,10.32
2017-05-21T03:35:16.221Z,10.38
2017-05-21T03:37:44.488Z,11.43
2017-05-21T03:40:13.059Z,11.03
2017-05-21T03:42:40.632Z,10.27
2017-05-21T03:45:08.157Z,10.40
2017-05-21T03:47:36.454Z,10.43
2017-05-21T03:50:03.988Z,11.55
2017-05-21T03:52:31.512Z,10.53
2017-05-21T03:54:59.044Z,10.82
2017-05-21T03:57:26.568Z,10.75
2017-05-21T03:59:54.868Z,9.57
2017-05-21T04:02:23.444Z,10.77
2017-05-21T04:04:50.963Z,11.08
2017-05-21T04:07:18.479Z,9.37
2017-05-21T04:09:46.823Z,10.42
2017-05-21T04:12:14.395Z,9.75
2017-05-21T04:14:41.899Z,10.25
2017-05-21T04:17:09.403Z,10.30
2017-05-21T04:19:36.915Z,9.40
2017-05-21T04:22:05.215Z,8.68
2017-05-21T04:24:32.797Z,9.00
2017-05-21T04:27:00.313Z,10.12
2017-05-21T04:29:28.049Z,9.10
2017-05-21T04:31:55.863Z,9.15
2017-05-21T04:34:24.193Z,9.92
2017-05-21T04:36:52.821Z,9.75
2017-05-21T04:39:21.147Z,8.98
2017-05-21T04:41:49.419Z,12.80
2017-05-21T04:44:16.996Z,10.20
2017-05-21T04:46:44.523Z,9.22
2017-05-21T04:49:12.088Z,9.95
2017-05-21T04:51:39.607Z,9.55
2017-05-21T04:54:07.469Z,10.33
2017-05-21T04:56:35.768Z,10.55
2017-05-21T04:59:04.040Z,10.55
2017-05-21T05:01:32.362Z,9.82
2017-05-21T05:04:00.868Z,10.87
2017-05-21T05:06:29.181Z,10.17
2017-05-21T05:08:56.788Z,11.18
2017-05-21T05:11:24.299Z,11.17
2017-05-21T05:13:51.847Z,10.32
2017-05-21T05:16:19.362Z,9.82
2017-05-21T05:18:46.909Z,8.70
2017-05-21T05:21:14.693Z,9.07
2017-05-21T05:23:42.215Z,8.83
2017-05-21T05:26:09.795Z,9.65
2017-05-21T05:28:37.325Z,7.87
2017-05-21T05:31:04.829Z,7.92
2017-05-21T05:33:32.356Z,8.10
2017-05-21T05:35:59.899Z,7.72
2017-05-21T05:38:28.558Z,7.17
2017-05-21T05:40:56.059Z,7.33
2017-05-21T05:43:23.838Z,7.15
2017-05-21T05:45:51.409Z,6.17
2017-05-21T05:48:19.724Z,7.15
2017-05-21T05:50:48.063Z,7.17
2017-05-21T05:53:15.616Z,6.96
2017-05-21T05:55:44.236Z,6.94
2017-05-21T05:58:11.784Z,7.08
2017-05-21T06:00:42.413Z,7.36
2017-05-21T06:03:10.340Z,6.88
2017-05-21T06:05:38.209Z,7.08
2017-05-21T06:08:06.520Z,6.92
2017-05-21T06:10:34.807Z,6.90
2017-05-21T06:13:02.358Z,7.26
2017-05-21T06:15:31.096Z,7.28
2017-05-21T06:17:58.624Z,7.48
2017-05-21T06:20:26.947Z,6.80
2017-05-21T06:22:55.274Z,7.16
2017-05-21T06:25:22.948Z,7.86
2017-05-21T06:27:50.472Z,6.68
2017-05-21T06:30:20.978Z,7.38
2017-05-21T06:32:49.886Z,7.20
2017-05-21T06:35:18.215Z,6.98
2017-05-21T06:37:46.542Z,7.82
2017-05-21T06:40:14.880Z,8.28
2017-05-21T06:42:42.409Z,7.22
2017-05-21T06:45:11.035Z,6.92
2017-05-21T06:47:39.324Z,7.18
2017-05-21T06:50:06.836Z,7.82
2017-05-21T06:52:34.405Z,7.38
2017-05-21T06:55:02.012Z,8.87
2017-05-21T06:57:30.304Z,7.77
2017-05-21T06:59:57.869Z,7.07
2017-05-21T07:02:25.642Z,7.00
2017-05-21T07:04:53.172Z,7.10
2017-05-21T07:07:20.897Z,6.58
2017-05-21T07:09:49.166Z,7.45
2017-05-21T07:12:17.452Z,7.40
2017-05-21T07:14:45.987Z,7.05
2017-05-21T07:17:13.563Z,7.48
2017-05-21T07:19:41.125Z,7.93
2017-05-21T07:22:08.867Z,8.07
2017-05-21T07:24:37.159Z,9.40
2017-05-21T07:27:04.910Z,9.02
2017-05-21T07:29:33.263Z,9.58
2017-05-21T07:32:01.044Z,8.33
2017-05-21T07:34:29.340Z,8.67
2017-05-21T07:36:56.861Z,8.82
2017-05-21T07:39:24.388Z,8.25
2017-05-21T07:41:51.920Z,10.07
2017-05-21T07:44:19.464Z,8.48
2017-05-21T07:46:47.855Z,10.48
2017-05-21T07:49:15.432Z,10.32
2017-05-21T07:51:43.752Z,11.53
2017-05-21T07:54:11.350Z,9.90
2017-05-21T07:56:39.213Z,10.12
2017-05-21T07:59:07.516Z,9.85
2017-05-21T08:01:36.034Z,10.95
2017-05-21T08:04:04.525Z,9.02
2017-05-21T08:06:32.113Z,9.58
2017-05-21T08:09:00.381Z,8.10
2017-05-21T08:11:28.681Z,10.40
2017-05-21T08:13:56.248Z,8.37
2017-05-21T08:16:23.807Z,8.57
2017-05-21T08:18:52.437Z,8.63
2017-05-21T08:21:20.704Z,8.98
2017-05-21T08:23:48.971Z,8.97
2017-05-21T08:26:17.344Z,8.55
2017-05-21T08:28:44.871Z,9.00
2017-05-21T08:31:12.431Z,8.70
2017-05-21T08:33:39.990Z,9.20
2017-05-21T08:36:07.499Z,7.67
2017-05-21T08:38:35.026Z,7.75
2017-05-21T08:41:02.524Z,6.75
2017-05-21T08:43:30.896Z,7.40
2017-05-21T08:45:58.392Z,8.37
2017-05-21T08:48:25.905Z,9.42
2017-05-21T08:50:54.483Z,7.58
2017-05-21T08:53:22.048Z,7.45
2017-05-21T08:55:49.611Z,7.53
2017-05-21T08:58:17.641Z,9.10
2017-05-21T09:00:45.139Z,7.53
2017-05-21T09:03:13.466Z,8.38
2017-05-21T09:05:41.740Z,9.10
2017-05-21T09:08:09.608Z,8.15
2017-05-21T09:10:38.166Z,8.20
2017-05-21T09:13:05.980Z,6.40
2017-05-21T09:15:33.566Z,8.80
2017-05-21T09:18:01.124Z,7.58
2017-05-21T09:20:28.932Z,8.07
2017-05-21T09:22:57.617Z,6.87
2017-05-21T09:25:25.977Z,7.83
2017-05-21T09:27:53.559Z,7.48
2017-05-21T09:30:21.827Z,8.75
2017-05-21T09:32:49.377Z,8.78
2017-05-21T09:35:17.098Z,8.55
2017-05-21T09:37:45.058Z,8.52
2017-05-21T09:40:12.779Z,9.82
2017-05-21T09:42:40.411Z,9.32
2017-05-21T09:45:08.830Z,8.82
2017-05-21T09:47:36.343Z,9.88
2017-05-21T09:50:03.955Z,9.67
2017-05-21T09:52:32.890Z,9.62
2017-05-21T09:55:03.219Z,9.10
2017-05-21T09:57:32.672Z,10.88
2017-05-21T10:00:03.307Z,11.38
2017-05-21T10:02:34.351Z,11.42
2017-05-21T10:05:04.801Z,9.72
2017-05-21T10:07:36.029Z,9.75
2017-05-21T10:10:06.077Z,10.87
2017-05-21T10:12:34.547Z,9.57
2017-05-21T10:15:02.280Z,8.68
2017-05-21T10:17:29.840Z,8.48
2017-05-21T10:19:57.344Z,8.08
2017-05-21T10:22:24.916Z,8.12
2017-05-21T10:24:52.492Z,7.42
2017-05-21T10:27:20.092Z,7.52
2017-05-21T10:29:47.707Z,8.12
2017-05-21T10:32:15.204Z,8.38
2017-05-21T10:34:43.002Z,8.30
2017-05-21T10:37:10.568Z,6.95
2017-05-21T10:39:38.103Z,6.65
2017-05-21T10:42:06.413Z,5.80
2017-05-21T10:44:34.741Z,8.28
2017-05-21T10:47:02.287Z,6.95
2017-05-21T10:49:30.590Z,6.97
2017-05-21T10:51:58.360Z,8.50
2017-05-21T10:54:26.131Z,9.45
2017-05-21T10:56:53.689Z,7.88
2017-05-21T10:59:21.951Z,7.93
2017-05-21T11:01:50.242Z,6.68
2017-05-21T11:04:18.096Z,3.43
2017-05-21T11:06:45.608Z,4.27
2017-05-21T11:09:14.145Z,4.65
2017-05-21T11:11:41.647Z,4.15
2017-05-21T11:14:09.363Z,4.38
2017-05-21T11:16:37.119Z,5.10
2017-05-21T11:19:04.810Z,5.60
2017-05-21T11:21:32.745Z,6.98
2017-05-21T11:24:00.435Z,7.38
2017-05-21T11:26:28.162Z,5.73
2017-05-21T11:28:56.564Z,4.52
2017-05-21T11:31:24.321Z,5.87
2017-05-21T11:33:56.554Z,5.12
2017-05-21T11:36:24.189Z,4.37
2017-05-21T11:38:53.265Z,4.63
2017-05-21T11:41:22.011Z,4.57
2017-05-21T11:43:49.646Z,4.42
2017-05-21T11:46:18.252Z,3.97
2017-05-21T11:48:47.082Z,4.20
2017-05-21T11:51:15.815Z,5.62
2017-05-21T11:53:43.458Z,6.18
2017-05-21T11:56:16.199Z,5.67
2017-05-21T11:58:44.441Z,6.10
2017-05-21T12:01:13.774Z,6.15
2017-05-21T12:03:42.577Z,6.43
2017-05-21T12:06:10.470Z,7.13
2017-05-21T12:08:38.121Z,7.15
2017-05-21T12:11:06.570Z,8.55
2017-05-21T12:13:35.878Z,6.43
2017-05-21T12:16:05.257Z,6.28
2017-05-21T12:18:34.708Z,8.38
2017-05-21T12:21:02.534Z,5.50
2017-05-21T12:23:30.350Z,5.02
2017-05-21T12:26:00.997Z,5.68
2017-05-21T12:28:31.603Z,4.85
2017-05-21T12:31:00.013Z,5.45
2017-05-21T12:33:27.765Z,5.68
2017-05-21T12:35:56.220Z,6.28
2017-05-21T12:38:24.058Z,5.27
2017-05-21T12:40:51.917Z,5.63
2017-05-21T12:43:19.721Z,5.33
2017-05-21T12:45:48.189Z,4.73
2017-05-21T12:48:15.788Z,5.23
2017-05-21T12:50:44.200Z,4.30
2017-05-21T12:53:11.935Z,5.28
2017-05-21T12:55:40.501Z,4.85
2017-05-21T12:58:09.038Z,4.93
2017-05-21T13:00:37.079Z,6.23
2017-05-21T13:03:04.722Z,6.98
2017-05-21T13:05:32.541Z,7.23
2017-05-21T13:08:01.028Z,7.17
2017-05-21T13:10:28.792Z,8.00
2017-05-21T13:12:56.480Z,7.45
2017-05-21T13:15:25.865Z,7.48
2017-05-21T13:17:54.813Z,7.00
2017-05-21T13:20:22.558Z,6.25
2017-05-21T13:22:50.266Z,7.58
2017-05-21T13:25:18.544Z,6.77
2017-05-21T13:27:46.833Z,6.97
2017-05-21T13:30:15.104Z,6.32
2017-05-21T13:32:42.728Z,5.72
2017-05-21T13:35:10.505Z,5.87
2017-05-21T13:37:38.046Z,6.05
2017-05-21T13:40:06.383Z,5.80
2017-05-21T13:42:33.879Z,6.05
2017-05-21T13:45:02.256Z,4.93
2017-05-21T13:47:29.807Z,4.42
2017-05-21T13:49:57.313Z,5.53
2017-05-21T13:52:25.689Z,5.28
2017-05-21T13:54:53.227Z,5.10
2017-05-21T13:57:21.080Z,5.97
2017-05-21T13:59:48.639Z,4.35
2017-05-21T14:02:16.965Z,3.90
2017-05-21T14:04:45.301Z,4.13
2017-05-21T14:07:13.633Z,4.65
2017-05-21T14:09:42.563Z,4.62
2017-05-21T14:12:10.873Z,4.18
2017-05-21T14:14:39.150Z,5.40
2017-05-21T14:17:07.470Z,5.52
2017-05-21T14:19:35.020Z,4.57
2017-05-21T14:22:02.651Z,4.30
2017-05-21T14:24:30.915Z,4.68
2017-05-21T14:26:58.415Z,4.57
2017-05-21T14:29:26.767Z,5.43
2017-05-21T14:31:54.307Z,4.75
2017-05-21T14:34:21.885Z,4.82
2017-05-21T14:36:49.387Z,4.88
2017-05-21T14:39:17.699Z,5.52
2017-05-21T14:41:45.264Z,6.22
2017-05-21T14:44:13.241Z,5.16
2017-05-21T14:46:41.568Z,6.18
2017-05-21T14:49:09.934Z,5.45
2017-05-21T14:51:37.427Z,5.25
2017-05-21T14:54:04.976Z,6.45
2017-05-21T14:56:33.245Z,5.88
2017-05-21T14:59:01.597Z,6.50
2017-05-21T15:01:29.141Z,6.88
2017-05-21T15:03:57.668Z,6.28
2017-05-21T15:06:25.358Z,6.20
2017-05-21T15:08:53.778Z,5.98
2017-05-21T15:11:21.574Z,6.33
2017-05-21T15:13:49.577Z,7.17
2017-05-21T15:16:18.149Z,6.63
2017-05-21T15:18:46.999Z,6.12
2017-05-21T15:21:14.719Z,6.25
2017-05-21T15:23:43.635Z,7.07
2017-05-21T15:26:12.118Z,7.10
2017-05-21T15:28:39.845Z,6.87
2017-05-21T15:31:08.499Z,6.00
2017-05-21T15:33:36.213Z,5.02
2017-05-21T15:36:03.902Z,5.93
2017-05-21T15:38:31.575Z,6.20
2017-05-21T15:40:59.393Z,5.48
2017-05-21T15:43:27.854Z,5.40
2017-05-21T15:45:55.773Z,5.68
2017-05-21T15:48:24.301Z,5.32
2017-05-21T15:50:53.273Z,5.48
2017-05-21T15:53:21.217Z,5.02
2017-05-21T15:55:49.077Z,4.42
2017-05-21T15:58:17.057Z,4.97
2017-05-21T16:00:45.046Z,4.53
2017-05-21T16:03:14.036Z,4.47
2017-05-21T16:05:42.777Z,4.45
2017-05-21T16:08:10.762Z,3.97
2017-05-21T16:10:39.489Z,3.95
2017-05-21T16:13:07.245Z,4.90
2017-05-21T16:15:36.548Z,4.70
2017-05-21T16:18:05.428Z,4.70
2017-05-21T16:20:33.153Z,4.77
2017-05-21T16:23:01.183Z,4.85
2017-05-21T16:25:29.494Z,5.70
2017-05-21T16:27:57.177Z,3.92
2017-05-21T16:30:25.656Z,4.47
2017-05-21T16:32:53.553Z,4.12
2017-05-21T16:35:21.186Z,3.58
2017-05-21T16:37:49.792Z,3.90
2017-05-21T16:40:17.466Z,4.68
2017-05-21T16:42:45.621Z,3.63
2017-05-21T16:45:14.187Z,4.15
2017-05-21T16:47:42.079Z,4.42
2017-05-21T16:50:10.960Z,4.20
2017-05-21T16:52:38.993Z,4.15
2017-05-21T16:55:06.897Z,4.27
2017-05-21T16:57:35.434Z,4.78
2017-05-21T17:00:03.883Z,4.25
2017-05-21T17:02:32.387Z,4.52
2017-05-21T17:04:59.975Z,4.38
2017-05-21T17:07:28.599Z,4.78
2017-05-21T17:09:56.248Z,4.78
2017-05-21T17:12:23.970Z,4.45
2017-05-21T17:14:52.448Z,5.22
2017-05-21T17:17:20.186Z,4.47
2017-05-21T17:19:50.628Z,3.45
2017-05-21T17:22:20.242Z,4.33
2017-05-21T17:24:48.968Z,4.50
2017-05-21T17:27:20.332Z,4.23
2017-05-21T17:29:49.033Z,4.45
2017-05-21T17:32:17.937Z,4.12
2017-05-21T17:34:46.942Z,4.12
2017-05-21T17:37:14.944Z,4.32
2017-05-21T17:39:43.058Z,3.57
2017-05-21T17:42:11.065Z,4.00
2017-05-21T17:44:39.070Z,4.15
2017-05-21T17:47:06.842Z,4.40
2017-05-21T17:49:35.648Z,4.12
2017-05-21T17:52:03.325Z,4.40
2017-05-21T17:54:32.064Z,4.23
2017-05-21T17:57:00.734Z,4.15
2017-05-21T17:59:29.183Z,4.55
2017-05-21T18:01:57.219Z,4.40
2017-05-21T18:04:25.811Z,3.40
2017-05-21T18:06:54.193Z,3.75
2017-05-21T18:09:21.866Z,3.90
2017-05-21T18:11:50.296Z,4.68
2017-05-21T18:14:17.943Z,4.12
2017-05-21T18:16:45.566Z,4.28
2017-05-21T18:19:13.138Z,3.73
2017-05-21T18:21:40.637Z,4.20
2017-05-21T18:24:08.218Z,3.77
2017-05-21T18:26:36.492Z,3.88
2017-05-21T18:29:04.840Z,4.15
2017-05-21T18:31:32.387Z,4.07
2017-05-21T18:34:00.232Z,3.73
2017-05-21T18:36:27.810Z,4.45
2017-05-21T18:38:55.381Z,3.60
2017-05-21T18:41:22.961Z,4.63
2017-05-21T18:43:50.464Z,4.55
2017-05-21T18:46:18.729Z,4.70
2017-05-21T18:48:46.801Z,4.80
2017-05-21T18:51:15.130Z,4.38
2017-05-21T18:53:42.689Z,4.20
2017-05-21T18:56:10.192Z,4.37
2017-05-21T18:58:38.496Z,4.90
2017-05-21T19:01:06.340Z,4.78
2017-05-21T19:03:33.856Z,4.87
2017-05-21T19:06:02.255Z,4.58
2017-05-21T19:08:30.885Z,4.74
2017-05-21T19:10:59.539Z,4.92
2017-05-21T19:13:28.116Z,5.85
2017-05-21T19:15:56.443Z,6.05
2017-05-21T19:18:24.025Z,5.78
2017-05-21T19:20:52.312Z,5.40
2017-05-21T19:23:20.911Z,5.47
2017-05-21T19:25:49.322Z,6.15
2017-05-21T19:28:17.512Z,7.00
2017-05-21T19:30:55.526Z,7.05
2017-05-21T19:33:24.058Z,5.35
2017-05-21T19:35:51.776Z,6.32
2017-05-21T19:38:19.778Z,6.28
2017-05-21T19:40:48.251Z,5.77
2017-05-21T19:43:15.908Z,6.65
2017-05-21T19:45:44.088Z,7.50
2017-05-21T19:48:12.583Z,7.75
2017-05-21T19:50:41.244Z,7.93
2017-05-21T19:53:09.421Z,8.03
2017-05-21T19:55:38.316Z,8.43
2017-05-21T19:58:05.948Z,7.63
2017-05-21T20:00:34.233Z,8.22
2017-05-21T20:03:03.024Z,7.03
2017-05-21T20:05:32.633Z,8.03
2017-05-21T20:08:00.483Z,7.98
2017-05-21T20:10:28.168Z,7.43
2017-05-21T20:12:57.472Z,9.18
2017-05-21T20:15:26.966Z,8.75
2017-05-21T20:17:54.632Z,7.47
2017-05-21T20:20:22.219Z,7.68
2017-05-21T20:22:50.851Z,8.87
2017-05-21T20:25:18.919Z,8.27
2017-05-21T20:27:47.241Z,8.30
2017-05-21T20:30:15.131Z,7.53
2017-05-21T20:32:42.756Z,8.58
2017-05-21T20:35:10.693Z,8.15
2017-05-21T20:37:39.344Z,7.93
2017-05-21T20:40:08.429Z,8.25
2017-05-21T20:42:36.112Z,7.75
2017-05-21T20:45:04.735Z,8.08
2017-05-21T20:47:33.564Z,8.40
2017-05-21T20:50:02.487Z,8.42
2017-05-21T20:52:30.960Z,7.93
2017-05-21T20:54:59.364Z,9.87
2017-05-21T20:57:28.174Z,9.05
2017-05-21T20:59:56.712Z,8.02
2017-05-21T21:02:24.628Z,8.17
2017-05-21T21:04:52.398Z,9.23
2017-05-21T21:07:20.209Z,9.63
2017-05-21T21:09:47.717Z,8.20
2017-05-21T21:12:15.271Z,8.87
2017-05-21T21:14:42.920Z,8.87
2017-05-21T21:17:11.200Z,8.40
2017-05-21T21:19:39.015Z,9.30
2017-05-21T21:22:06.591Z,9.28
2017-05-21T21:24:34.121Z,9.22
2017-05-21T21:27:01.629Z,9.50
2017-05-21T21:29:29.127Z,9.42
2017-05-21T21:31:57.421Z,9.48
2017-05-21T21:34:25.759Z,10.27
2017-05-21T21:36:53.319Z,9.33
2017-05-21T21:39:21.632Z,9.10
2017-05-21T21:41:49.135Z,9.00
2017-05-21T21:44:17.708Z,9.53
2017-05-21T21:46:45.205Z,10.25
2017-05-21T21:49:12.829Z,8.98
2017-05-21T21:51:40.333Z,9.80
2017-05-21T21:54:08.623Z,10.32
2017-05-21T21:56:36.157Z,9.40
2017-05-21T21:59:04.464Z,10.67
2017-05-21T22:01:32.822Z,10.15
2017-05-21T22:04:00.326Z,9.73
2017-05-21T22:06:28.638Z,10.32
2017-05-21T22:08:56.183Z,9.17
2017-05-21T22:11:23.687Z,8.95
2017-05-21T22:13:51.208Z,10.88
2017-05-21T22:16:19.471Z,9.92
2017-05-21T22:18:47.800Z,10.48
2017-05-21T22:21:16.133Z,10.37
2017-05-21T22:23:44.498Z,9.90
2017-05-21T22:26:12.031Z,10.20
2017-05-21T22:28:40.326Z,9.80
2017-05-21T22:31:08.652Z,9.60
2017-05-21T22:33:36.932Z,9.75
2017-05-21T22:36:05.267Z,10.05
2017-05-21T22:38:32.796Z,9.37
2017-05-21T22:41:01.055Z,9.38
2017-05-21T22:43:28.625Z,10.03
2017-05-21T22:45:56.973Z,9.68
2017-05-21T22:48:24.490Z,9.65
2017-05-21T22:50:52.819Z,9.42
2017-05-21T22:53:21.355Z,10.28
2017-05-21T22:55:49.620Z,10.33
2017-05-21T22:58:17.912Z,9.37
2017-05-21T23:00:45.445Z,10.12
2017-05-21T23:03:13.784Z,9.63
2017-05-21T23:05:41.604Z,9.88
2017-05-21T23:08:10.184Z,9.32
2017-05-21T23:10:38.763Z,10.50
2017-05-21T23:13:06.264Z,11.03
2017-05-21T23:15:33.818Z,11.67
2017-05-21T23:18:02.360Z,11.55
2017-05-21T23:20:29.887Z,11.40
2017-05-21T23:22:57.387Z,11.33
2017-05-21T23:25:24.912Z,11.53
2017-05-21T23:27:53.191Z,10.07
2017-05-21T23:30:20.717Z,11.95
2017-05-21T23:32:48.330Z,10.52
2017-05-21T23:35:16.640Z,10.67
2017-05-21T23:37:45.176Z,10.63
2017-05-21T23:40:12.697Z,10.33
2017-05-21T23:42:40.496Z,10.15
2017-05-21T23:45:09.076Z,10.82
2017-05-21T23:47:37.353Z,11.23
2017-05-21T23:50:05.676Z,10.63
2017-05-21T23:52:33.195Z,11.92
2017-05-21T23:55:00.734Z,10.47
2017-05-21T23:57:29.089Z,11.22
2017-05-21T23:59:57.381Z,11.55
